Terminal Aerodrome Forecast
Issued by NWS Wilmington, OH

Current Version | Previous Version | Graphics & Text | Print | Product List | Glossary On
Versions: 1 2 3 4 5 6 7 8 9 10 11 12 13 14 15 16 17 18 19 20 21 22 23 24 25 26 27 28 29 30 31
207
FTUS41 KILN 041132
TAFCVG
TAF
KCVG 041132Z 0412/0518 23006KT P6SM OVC100
     FM041500 24012G20KT 4SM -SHRA OVC040
     FM041800 24012G20KT 4SM -SHRA BR VCTS SCT015 OVC025CB
     FM042100 30014KT P6SM VCSH BKN015 OVC022
     FM050300 32012KT P6SM VCSH OVC012
     FM050800 32010KT P6SM VCSH OVC006=

USA.gov is the U.S. government's official web portal to all federal, state and local government web resources and services.